Time;durP1;ratioP1;P1;durP2;ratioP2;P2;SDS_P1;SDS_P2;PMS_P1;PMS_P2;Temp;Humidity;BMP_temperature;BMP_pressure;BME280_temperature;BME280_humidity;BME280_pressure;Samples;Min_cycle;Max_cycle;Signal;HPM_P1;HPM_P2
2023/10/18 00:00:57;;;;;;;;;;;;;;;;;;5093892;28;19911;-68
2023/10/18 00:03:23;;;;;;;;;;;;;;;;;;5094305;28;19904;-68
2023/10/18 00:05:49;;;;;;;;;;;;;;;;;;5094175;28;19910;-68
2023/10/18 00:08:17;;;;;;;;;;;;;;;;;;5075570;28;19950;-68
2023/10/18 00:10:43;;;;;;;;;;;;;;;;;;5094086;28;19908;-68
2023/10/18 00:13:08;;;;;;;;;;;;;;;;;;5093755;28;19927;-68
2023/10/18 00:15:36;;;;;;;;;;;;;;;;;;5093897;28;20350;-68
2023/10/18 00:18:02;;;;;;;;;;;;;;;;;;5093941;28;20003;-68
2023/10/18 00:20:28;;;;;;;;;;;;;;;;;;5075571;28;19904;-68
2023/10/18 00:22:54;;;;;;;;;;;;;;;;;;5093991;28;20394;-68
2023/10/18 00:25:20;;;;;;;;;;;;;;;;;;5093996;28;19904;-68
2023/10/18 00:27:46;;;;;;;;;;;;;;;;;;5075227;28;19904;-68
2023/10/18 00:30:12;;;;;;;;;;;;;;;;;;5075794;28;19986;-68
2023/10/18 00:32:38;;;;;;;;;;;;;;;;;;5093988;28;19970;-68
2023/10/18 00:35:12;;;;;;;;;;;;;;;;;;5093526;28;19946;-68
2023/10/18 00:37:38;;;;;;;;;;;;;;;;;;5094122;28;20356;-68
2023/10/18 00:40:07;;;;;;;;;;;;;;;;;;5093885;28;19904;-68
2023/10/18 00:42:35;;;;;;;;;;;;;;;;;;5075322;28;19904;-68
2023/10/18 00:45:02;;;;;;;;;;;;;;;;;;5093844;28;19991;-68
2023/10/18 00:47:28;;;;;;;;;;;;;;;;;;5093744;28;19904;-67
2023/10/18 00:49:54;;;;;;;;;;;;;;;;;;5093380;28;20379;-67
2023/10/18 00:52:20;;;;;;;;;;;;;;;;;;5094404;28;19904;-67
2023/10/18 00:54:45;;;;;;;;;;;;;;;;;;5093709;28;20403;-67
2023/10/18 00:57:12;;;;;;;;;;;;;;;;;;5093367;28;20356;-67
2023/10/18 00:59:38;;;;;;;;;;;;;;;;;;5075601;28;19999;-67
2023/10/18 01:02:10;;;;;;;;;;;;;;;;;;5093617;28;20362;-67
2023/10/18 01:04:36;;;;;;;;;;;;;;;;;;5093290;28;20240;-67
2023/10/18 01:07:11;;;;;;;;;;;;;;;;;;5093606;28;20090;-67
2023/10/18 01:09:43;;;;;;;;;;;;;;;;;;5093259;28;19904;-67
2023/10/18 01:12:09;;;;;;;;;;;;;;;;;;5093627;28;19904;-68
2023/10/18 01:14:36;;;;;;;;;;;;;;;;;;5075402;28;20003;-67
2023/10/18 01:17:04;;;;;;;;;;;;;;;;;;5092843;28;20006;-67
2023/10/18 01:19:30;;;;;;;;;;;;;;;;;;5093477;28;19904;-68
2023/10/18 01:21:56;;;;;;;;;;;;;;;;;;5093756;28;19910;-68
2023/10/18 01:24:22;;;;;;;;;;;;;;;;;;5093030;28;19908;-68
2023/10/18 01:26:48;;;;;;;;;;;;;;;;;;5093376;28;19904;-68
2023/10/18 01:29:15;;;;;;;;;;;;;;;;;;5093573;28;19904;-67
2023/10/18 01:31:44;;;;;;;;;;;;;;;;;;5092990;28;20045;-67
2023/10/18 01:34:10;;;;;;;;;;;;;;;;;;5093365;28;19904;-67
2023/10/18 01:36:39;;;;;;;;;;;;;;;;;;5093231;28;19919;-68
2023/10/18 01:39:18;;;;;;;;;;;;;;;;;;5093045;28;20299;-68
2023/10/18 01:41:44;;;;;;;;;;;;;;;;;;5096548;28;19904;-67
2023/10/18 01:44:12;;;;;;;;;;;;;;;;;;5078701;28;19904;-68
2023/10/18 01:46:48;;;;;;;;;;;;;;;;;;5096507;28;20391;-68
2023/10/18 01:49:19;;;;;;;;;;;;;;;;;;5096963;28;20000;-68
2023/10/18 01:51:46;;;;;;;;;;;;;;;;;;5096410;28;19973;-68
2023/10/18 01:54:15;;;;;;;;;;;;;;;;;;5096695;28;19904;-68
2023/10/18 01:56:42;;;;;;;;;;;;;;;;;;5096633;28;19965;-68
2023/10/18 01:59:08;;;;;;;;;;;;;;;;;;5096151;28;19965;-68
2023/10/18 02:01:34;;;;;;;;;;;;;;;;;;5097093;28;20295;-68
2023/10/18 02:04:02;;;;;;;;;;;;;;;;;;5096500;28;19911;-68
2023/10/18 02:06:28;;;;;;;;;;;;;;;;;;5096165;28;20352;-69
2023/10/18 02:08:55;;;;;;;;;;;;;;;;;;5096446;28;20279;-68
2023/10/18 02:11:21;;;;;;;;;;;;;;;;;;5096565;28;19935;-68
2023/10/18 02:13:47;;;;;;;;;;;;;;;;;;5096205;28;19904;-68
2023/10/18 02:16:19;;;;;;;;;;;;;;;;;;5096176;28;19916;-68
2023/10/18 02:18:48;;;;;;;;;;;;;;;;;;5096250;28;19904;-68
2023/10/18 02:21:14;;;;;;;;;;;;;;;;;;5077576;28;19911;-68
2023/10/18 02:23:42;;;;;;;;;;;;;;;;;;5096053;28;19911;-69
2023/10/18 02:29:12;;;;;;;;;;;;;;;;;;5077865;28;19911;-68
2023/10/18 02:31:38;;;;;;;;;;;;;;;;;;5078131;28;19904;-68
2023/10/18 02:34:05;;;;;;;;;;;;;;;;;;5095503;28;20056;-68
2023/10/18 02:36:38;;;;;;;;;;;;;;;;;;5095822;28;19907;-68
2023/10/18 02:39:05;;;;;;;;;;;;;;;;;;5095839;28;19915;-69
2023/10/18 02:41:31;;;;;;;;;;;;;;;;;;5095726;28;20383;-69
2023/10/18 02:43:58;;;;;;;;;;;;;;;;;;5077529;28;19934;-69
2023/10/18 02:46:24;;;;;;;;;;;;;;;;;;5096265;28;20253;-68
2023/10/18 02:48:53;;;;;;;;;;;;;;;;;;5077081;28;19904;-69
2023/10/18 02:51:25;;;;;;;;;;;;;;;;;;5095444;28;19986;-68
2023/10/18 02:53:53;;;;;;;;;;;;;;;;;;5095802;28;20352;-68
2023/10/18 02:56:27;;;;;;;;;;;;;;;;;;5095074;28;19949;-69
2023/10/18 02:59:06;;;;;;;;;;;;;;;;;;5095722;28;19911;-69
2023/10/18 03:01:32;;;;;;;;;;;;;;;;;;5095907;28;19904;-68
2023/10/18 03:04:00;;;;;;;;;;;;;;;;;;5094922;28;19911;-68
2023/10/18 03:06:27;;;;;;;;;;;;;;;;;;5095266;28;19904;-69
2023/10/18 03:08:58;;;;;;;;;;;;;;;;;;5094882;28;19911;-69
2023/10/18 03:11:25;;;;;;;;;;;;;;;;;;5095179;28;19904;-68
2023/10/18 03:13:51;;;;;;;;;;;;;;;;;;5095124;28;19948;-69
2023/10/18 03:16:25;;;;;;;;;;;;;;;;;;5094420;28;20368;-68
2023/10/18 03:18:53;;;;;;;;;;;;;;;;;;5095114;28;20280;-69
2023/10/18 03:21:22;;;;;;;;;;;;;;;;;;5095058;28;19904;-68
2023/10/18 03:23:50;;;;;;;;;;;;;;;;;;5094482;28;19993;-69
2023/10/18 03:26:21;;;;;;;;;;;;;;;;;;5076634;28;19904;-69
2023/10/18 03:28:47;;;;;;;;;;;;;;;;;;5095403;28;20259;-68
2023/10/18 03:31:24;;;;;;;;;;;;;;;;;;5094280;28;19942;-68
2023/10/18 03:33:55;;;;;;;;;;;;;;;;;;5076503;28;20314;-69
2023/10/18 03:36:25;;;;;;;;;;;;;;;;;;5094829;28;19904;-69
2023/10/18 03:38:54;;;;;;;;;;;;;;;;;;5094238;28;19930;-69
2023/10/18 03:41:20;;;;;;;;;;;;;;;;;;5076359;28;20348;-68
2023/10/18 03:43:48;;;;;;;;;;;;;;;;;;5094851;28;19904;-69
2023/10/18 03:46:18;;;;;;;;;;;;;;;;;;5075851;28;19904;-68
2023/10/18 03:48:46;;;;;;;;;;;;;;;;;;5094455;28;19908;-69
2023/10/18 03:51:12;;;;;;;;;;;;;;;;;;5094152;28;19911;-68
2023/10/18 03:53:38;;;;;;;;;;;;;;;;;;5094424;28;19904;-68
2023/10/18 03:56:06;;;;;;;;;;;;;;;;;;5094553;28;19905;-68
2023/10/18 03:58:34;;;;;;;;;;;;;;;;;;5094042;28;19935;-68
2023/10/18 04:01:01;;;;;;;;;;;;;;;;;;5093999;28;19904;-68
2023/10/18 04:03:30;;;;;;;;;;;;;;;;;;5091719;28;20344;-68
2023/10/18 04:05:56;;;;;;;;;;;;;;;;;;5091816;28;20379;-68
2023/10/18 04:08:22;;;;;;;;;;;;;;;;;;5092355;28;19911;-68
2023/10/18 04:10:48;;;;;;;;;;;;;;;;;;5092090;28;19983;-68
2023/10/18 04:13:14;;;;;;;;;;;;;;;;;;5091467;28;20041;-68
2023/10/18 04:15:46;;;;;;;;;;;;;;;;;;5091875;28;19915;-68
2023/10/18 04:18:13;;;;;;;;;;;;;;;;;;5091490;28;20012;-68
2023/10/18 04:20:42;;;;;;;383.60;225.95;;;;;;;;;;5091585;28;20401;-68
2023/10/18 04:23:25;;;;;;;;;;;;;;;;;;5093297;28;20032;-68
2023/10/18 04:26:25;;;;;;;;;;;;;;;;;;5075913;28;19911;-68
2023/10/18 04:28:45;;;;;;;408.13;231.35;;;;;;;;;;5088448;28;20389;-68
2023/10/18 04:31:14;;;;;;;;;;;;;;;;;;5093833;28;20028;-68
2023/10/18 04:33:49;;;;;;;;;;;;;;;;;;5093600;28;19991;-68
2023/10/18 04:36:15;;;;;;;;;;;;;;;;;;5091712;28;19904;-68
2023/10/18 04:38:47;;;;;;;;;;;;;;;;;;5091771;28;19908;-68
2023/10/18 04:43:50;;;;;;;;;;;;;;;;;;5092081;28;19974;-68
2023/10/18 04:46:18;;;;;;;;;;;;;;;;;;5091707;28;19904;-68
2023/10/18 04:51:44;;;;;;;;;;;;;;;;;;5093537;28;20275;-68
2023/10/18 04:54:11;;;;;;;;;;;;;;;;;;5093934;28;20237;-68
2023/10/18 04:56:46;;;;;;;;;;;;;;;;;;5092962;28;19912;-68
2023/10/18 05:02:05;;;;;;;;;;;;;;;;;;5093128;28;20329;-68
2023/10/18 05:04:37;;;;;;;;;;;;;;;;;;5089811;28;19994;-68
2023/10/18 05:07:18;;;;;;;;;;;;;;;;;;5084456;28;19950;-68
2023/10/18 05:09:44;;;;;;;;;;;;;;;;;;5088451;28;19915;-68
2023/10/18 05:14:44;;;;;;;;;;;;;;;;;;5092293;28;20036;-68
2023/10/18 05:17:23;;;;;;;;;;;;;;;;;;5095696;28;20286;-67
2023/10/18 05:19:48;;;;;;;;;;;;;;;;;;5074302;28;19904;-68
2023/10/18 05:22:20;;;;;;;;;;;;;;;;;;5091029;28;20371;-67
2023/10/18 05:24:54;;;;;;;;;;;;;;;;;;5090179;28;19943;-67
2023/10/18 05:27:24;;;;;;;;;;;;;;;;;;5075111;28;19961;-68
2023/10/18 05:29:53;;;;;;;;;;;;;;;;;;5091272;28;19908;-68
2023/10/18 05:37:50;;;;;;;;;;;;;;;;;;5083297;28;19961;-62
2023/10/18 05:43:03;;;;;;;;;;;;;;;;;;5095964;28;19914;-62
2023/10/18 05:45:31;;;;;;;;;;;;;;;;;;5094655;28;20439;-62
2023/10/18 05:47:58;;;;;;;;;;;;;;;;;;5075877;28;19995;-62
2023/10/18 05:50:24;;;;;;;;;;;;;;;;;;5075796;28;19981;-65
2023/10/18 05:52:57;;;;;;;;;;;;;;;;;;5078423;28;19912;-69
2023/10/18 05:55:23;;;;;;;;;;;;;;;;;;5073180;28;19915;-62
2023/10/18 05:57:50;;;;;;;;;;;;;;;;;;5053792;28;19913;-63
2023/10/18 06:00:18;;;;;;;;;;;;;;;;;;5058586;28;20028;-61
2023/10/18 06:02:48;;;;;;;;;;;;;;;;;;5055679;28;19969;-62
2023/10/18 06:05:14;;;;;;;;;;;;;;;;;;5083631;28;19961;-60
2023/10/18 06:07:41;;;;;;;;;;;;;;;;;;5081508;28;20007;-61
2023/10/18 06:10:16;;;;;;;;;;;;;;;;;;5075705;28;19909;-61
2023/10/18 06:12:46;;;;;;;;;;;;;;;;;;5073206;28;19908;-62
2023/10/18 06:15:13;;;;;;;;;;;;;;;;;;5075188;28;19912;-61
2023/10/18 06:17:53;;;;;;;;;;;;;;;;;;5094078;28;19923;-61
2023/10/18 06:20:28;;;;;;;;;;;;;;;;;;5093881;28;20371;-61
2023/10/18 06:23:08;;;;;;;;;;;;;;;;;;5093764;28;20389;-63
2023/10/18 06:25:46;;;;;;;;;;;;;;;;;;5074597;28;19908;-62
2023/10/18 06:28:19;;;;;;;;;;;;;;;;;;5092351;28;19908;-62
2023/10/18 06:30:49;;;;;;;;;;;;;;;;;;5070857;28;20331;-64
2023/10/18 06:33:18;;;;;;;;;;;;;;;;;;5087432;28;20532;-63
2023/10/18 06:35:53;;;;;;;;;;;;;;;;;;5086209;28;19915;-63
2023/10/18 06:38:22;;;;;;;;;;;;;;;;;;5093136;28;19919;-63
2023/10/18 06:40:53;;;;;;;;;;;;;;;;;;5093052;28;19904;-62
2023/10/18 06:43:20;;;;;;;;;;;;;;;;;;5090806;28;19923;-63
2023/10/18 06:45:46;;;;;;;;;;;;;;;;;;5067251;28;19908;-63
2023/10/18 06:48:14;;;;;;;;;;;;;;;;;;5093380;28;19956;-64
2023/10/18 06:50:40;;;;;;;;;;;;;;;;;;5093266;28;20072;-63
2023/10/18 06:53:06;;;;;;;;;;;;;;;;;;5093420;28;20014;-63
2023/10/18 06:55:44;;;;;;;;;;;;;;;;;;5094334;28;19915;-63
2023/10/18 07:00:52;;;;;;;;;;;;;;;;;;5092037;28;19956;-68
2023/10/18 07:03:18;;;;;;;;;;;;;;;;;;5087611;28;20140;-68
2023/10/18 07:05:44;;;;;;;;;;;;;;;;;;5091327;28;19911;-69
2023/10/18 07:08:20;;;;;;;;;;;;;;;;;;5090873;28;20264;-68
2023/10/18 07:10:56;;;;;;;;;;;;;;;;;;5079534;28;19908;-67
2023/10/18 07:13:32;;;;;;;;;;;;;;;;;;5058835;28;19982;-69
2023/10/18 07:15:58;;;;;;;;;;;;;;;;;;5091881;28;19927;-67
2023/10/18 07:18:27;;;;;;;;;;;;;;;;;;5073402;28;19915;-67
2023/10/18 07:20:59;;;;;;;;;;;;;;;;;;5082487;28;19912;-69
2023/10/18 07:23:26;;;;;;;;;;;;;;;;;;5081311;28;19908;-67
2023/10/18 07:25:52;;;;;;;363.17;219.73;;;;;;;;;;5081469;28;20474;-68
2023/10/18 07:28:21;;;;;;;;;;;;;;;;;;5084824;28;20676;-66
2023/10/18 07:30:47;;;;;;;;;;;;;;;;;;5086626;28;19908;-67
2023/10/18 07:33:15;;;;;;;;;;;;;;;;;;5087578;28;19904;-69
2023/10/18 07:35:44;;;;;;;;;;;;;;;;;;5069975;28;19911;-65
2023/10/18 07:38:10;;;;;;;;;;;;;;;;;;5086319;28;19916;-66
2023/10/18 07:40:40;;;;;;;;;;;;;;;;;;5086227;28;20595;-67
2023/10/18 07:43:07;;;;;;;;;;;;;;;;;;5087672;28;19995;-67
2023/10/18 07:45:33;;;;;;;;;;;;;;;;;;5087754;28;20441;-68
2023/10/18 07:47:59;;;;;;;;;;;;;;;;;;5094865;28;19908;-65
2023/10/18 07:50:34;;;;;;;;;;;;;;;;;;5072170;28;19951;-64
2023/10/18 07:53:00;;;;;;;;;;;;;;;;;;5087776;28;19908;-68
2023/10/18 07:55:36;;;;;;;;;;;;;;;;;;5071879;28;19908;-65
2023/10/18 07:58:06;;;;;;;;;;;;;;;;;;5078411;28;20613;-67
2023/10/18 08:00:32;;;;;;;;;;;;;;;;;;5092246;28;19931;-67
2023/10/18 08:02:59;;;;;;;;;;;;;;;;;;5093078;28;19908;-69
2023/10/18 08:05:31;;;;;;;;;;;;;;;;;;5092244;28;19931;-67
2023/10/18 08:08:03;;;;;;;;;;;;;;;;;;5092707;28;19973;-65
2023/10/18 08:10:32;;;;;;;;;;;;;;;;;;5103280;28;19908;-65
2023/10/18 08:13:06;;;;;;;;;;;;;;;;;;5089234;28;19904;-68
2023/10/18 08:15:36;;;;;;;;;;;;;;;;;;5093044;28;19915;-66
2023/10/18 08:18:17;;;;;;;;;;;;;;;;;;5085827;28;20034;-68
2023/10/18 08:25:51;;;;;;;;;;;;;;;;;;5084088;28;19995;-68
2023/10/18 08:28:17;;;;;;;;;;;;;;;;;;5090442;28;19918;-69
2023/10/18 08:31:03;;;;;;;;;;;;;;;;;;5077306;28;19930;-69
2023/10/18 08:33:29;;;;;;;;;;;;;;;;;;5092452;28;19911;-69
2023/10/18 08:35:58;;;;;;;;;;;;;;;;;;5088229;28;20348;-69
2023/10/18 08:38:26;;;;;;;;;;;;;;;;;;5090694;28;19916;-73
2023/10/18 08:41:05;;;;;;;;;;;;;;;;;;5099685;28;19915;-70
2023/10/18 08:43:31;;;;;;;;;;;;;;;;;;5080885;28;19918;-72
2023/10/18 08:45:57;;;;;;;;;;;;;;;;;;5085708;28;20268;-72
2023/10/18 08:48:38;;;;;;;536.20;265.40;;;;;;;;;;5081812;28;20390;-69
2023/10/18 08:51:44;;;;;;;;;;;;;;;;;;5094534;27;20121;-69
2023/10/18 08:54:17;;;;;;;457.20;337.02;;;;;;;;;;5087949;28;20488;-70
2023/10/18 08:56:43;;;;;;;;;;;;;;;;;;5119173;28;20081;-68
2023/10/18 09:03:23;;;;;;;465.42;282.13;;;;;;;;;;5107550;28;20850;-68
2023/10/18 09:06:06;;;;;;;;;;;;;;;;;;5090465;27;19924;-68
2023/10/18 09:08:35;;;;;;;;;;;;;;;;;;5086544;28;19912;-68
2023/10/18 09:11:04;;;;;;;;;;;;;;;;;;5073699;28;19912;-67
2023/10/18 09:13:33;;;;;;;;;;;;;;;;;;5072180;28;20284;-69
2023/10/18 09:18:25;;;;;;;;;;;;;;;;;;5067586;28;20008;-69
2023/10/18 09:20:51;;;;;;;;;;;;;;;;;;5069787;28;20429;-69
2023/10/18 09:23:20;;;;;;;;;;;;;;;;;;5056520;28;19920;-68
2023/10/18 09:25:49;;;;;;;;;;;;;;;;;;5073480;28;19947;-67
2023/10/18 09:28:20;;;;;;;;;;;;;;;;;;5061917;28;19952;-67
2023/10/18 09:30:46;;;;;;;;;;;;;;;;;;5069660;28;19919;-67
2023/10/18 09:33:13;;;;;;;;;;;;;;;;;;5070595;28;19913;-66
2023/10/18 09:35:39;;;;;;;;;;;;;;;;;;5067389;28;19912;-67
2023/10/18 09:38:07;;;;;;;;;;;;;;;;;;5061827;28;19920;-67
2023/10/18 09:40:34;;;;;;;;;;;;;;;;;;5057821;28;19913;-68
2023/10/18 09:43:00;;;;;;;;;;;;;;;;;;5058320;28;20015;-67
2023/10/18 09:45:28;;;;;;;;;;;;;;;;;;5064076;28;19921;-66
2023/10/18 09:47:54;;;;;;;;;;;;;;;;;;5063055;28;20262;-67
2023/10/18 09:50:23;;;;;;;;;;;;;;;;;;5072165;28;19920;-68
2023/10/18 09:52:56;;;;;;;;;;;;;;;;;;5062629;28;19913;-68
2023/10/18 09:55:22;;;;;;;;;;;;;;;;;;5090244;28;20022;-66
2023/10/18 09:57:59;;;;;;;;;;;;;;;;;;5062052;28;20011;-67
2023/10/18 10:00:26;;;;;;;;;;;;;;;;;;5059636;28;19917;-67
2023/10/18 10:02:52;;;;;;;;;;;;;;;;;;5065083;28;20003;-69
2023/10/18 10:05:25;;;;;;;;;;;;;;;;;;5094758;28;19921;-67
2023/10/18 10:07:51;;;;;;;;;;;;;;;;;;5070565;28;19959;-66
2023/10/18 10:10:24;;;;;;;;;;;;;;;;;;5068824;28;19912;-67
2023/10/18 10:12:59;;;;;;;;;;;;;;;;;;5083124;28;19917;-69
2023/10/18 10:15:28;;;;;;;;;;;;;;;;;;5087672;28;19952;-68
2023/10/18 10:17:57;;;;;;;;;;;;;;;;;;5064671;28;19920;-69
2023/10/18 10:22:15;;;;;;;;;;;;;;;;;;5068045;28;20462;-73
2023/10/18 10:24:45;;;;;;;;;;;;;;;;;;5073512;28;19923;-70
2023/10/18 10:27:21;;;;;;;;;;;;;;;;;;5068025;28;20427;-71
2023/10/18 10:29:56;;;;;;;;;;;;;;;;;;5098341;28;19963;-69
2023/10/18 10:32:23;;;;;;;;;;;;;;;;;;5066126;28;19919;-69
2023/10/18 10:34:50;;;;;;;;;;;;;;;;;;5084723;28;19966;-70
2023/10/18 10:37:18;;;;;;;;;;;;;;;;;;5063664;28;19913;-67
2023/10/18 10:39:44;;;;;;;;;;;;;;;;;;5099468;28;19921;-68
2023/10/18 10:42:19;;;;;;;;;;;;;;;;;;5067084;28;19913;-68
2023/10/18 10:44:48;;;;;;;;;;;;;;;;;;5063349;28;19919;-67
2023/10/18 10:47:16;;;;;;;;;;;;;;;;;;5077281;28;19916;-70
2023/10/18 10:49:42;;;;;;;;;;;;;;;;;;5066629;28;19953;-69
2023/10/18 10:52:10;;;;;;;263.27;181.02;;;;;;;;;;5075051;28;20964;-68
2023/10/18 10:54:37;;;;;;;;;;;;;;;;;;5085947;28;20020;-68
2023/10/18 10:57:03;;;;;;;;;;;;;;;;;;5071817;28;19912;-69
2023/10/18 10:59:29;;;;;;;;;;;;;;;;;;5065267;28;19939;-69
2023/10/18 11:05:51;;;;;;;;;;;;;;;;;;5104036;27;19912;-69
2023/10/18 11:08:19;;;;;;;;;;;;;;;;;;5101442;28;19912;-66
2023/10/18 11:10:44;;;;;;;;;;;;;;;;;;5098059;28;19966;-69
2023/10/18 11:13:13;;;;;;;;;;;;;;;;;;5092448;28;20400;-66
2023/10/18 11:16:55;;;;;;;;;;;;;;;;;;5088006;27;19916;-69
2023/10/18 11:21:28;;;;;;;;;;;;;;;;;;5105355;27;19920;-71
2023/10/18 11:23:57;;;;;;;;;;;;;;;;;;5099053;28;19912;-69
2023/10/18 11:26:24;;;;;;;;;;;;;;;;;;5092741;28;20000;-70
2023/10/18 11:28:54;;;;;;;;;;;;;;;;;;5096369;28;19916;-70
2023/10/18 11:31:20;;;;;;;;;;;;;;;;;;5106655;28;19916;-70
2023/10/18 11:33:57;;;;;;;;;;;;;;;;;;5107943;28;20362;-72
2023/10/18 11:36:27;;;;;;;;;;;;;;;;;;5109453;28;19952;-70
2023/10/18 11:41:38;;;;;;;164.30;146.40;;;;;;;;;;5108266;28;20382;-73
2023/10/18 11:44:06;;;;;;;;;;;;;;;;;;5108809;28;20102;-71
2023/10/18 11:46:32;;;;;;;;;;;;;;;;;;5112296;28;19918;-70
2023/10/18 11:48:58;;;;;;;;;;;;;;;;;;5097823;28;19908;-72
2023/10/18 11:51:25;;;;;;;;;;;;;;;;;;5104630;28;19943;-70
2023/10/18 11:53:51;;;;;;;;;;;;;;;;;;5118381;27;20314;-73
2023/10/18 11:56:19;;;;;;;;;;;;;;;;;;5106983;28;19915;-70
2023/10/18 11:58:46;;;;;;;;;;;;;;;;;;5108261;28;19998;-72
2023/10/18 12:02:33;;;;;;;;;;;;;;;;;;5108389;27;19912;-73
2023/10/18 12:04:59;;;;;;;;;;;;;;;;;;5105010;28;19912;-70
2023/10/18 12:07:26;;;;;;;;;;;;;;;;;;5108950;28;20003;-73
2023/10/18 12:09:51;;;;;;;;;;;;;;;;;;5103393;28;19956;-73
2023/10/18 12:12:20;;;;;;;;;;;;;;;;;;5092908;28;20387;-69
2023/10/18 12:14:46;;;;;;;;;;;;;;;;;;5090254;28;19920;-72
2023/10/18 12:17:13;;;;;;;;;;;;;;;;;;5088433;28;19912;-72
2023/10/18 12:19:39;;;;;;;;;;;;;;;;;;5087304;28;19959;-73
2023/10/18 12:22:05;;;;;;;;;;;;;;;;;;5085885;28;19944;-72
2023/10/18 12:26:45;;;;;;;;;;;;;;;;;;5142392;27;19916;-73
2023/10/18 12:29:16;;;;;;;;;;;;;;;;;;5129653;28;19912;-74
2023/10/18 12:31:42;;;;;;;;;;;;;;;;;;5129362;28;19937;-74
2023/10/18 12:34:09;;;;;;;;;;;;;;;;;;5127760;28;20011;-73
2023/10/18 12:36:39;;;;;;;630.33;270.90;;;;;;;;;;5123771;28;20731;-73
2023/10/18 12:39:08;;;;;;;624.25;266.77;;;;;;;;;;5125711;28;20864;-72
2023/10/18 12:41:43;;;;;;;;;;;;;;;;;;5127808;28;20029;-72
2023/10/18 12:46:37;;;;;;;;;;;;;;;;;;5088186;27;19920;-70
2023/10/18 12:49:10;;;;;;;;;;;;;;;;;;5087458;28;19974;-70
2023/10/18 12:51:40;;;;;;;;;;;;;;;;;;5082289;28;19908;-70
2023/10/18 12:54:08;;;;;;;;;;;;;;;;;;5063625;28;19916;-70
2023/10/18 12:56:38;;;;;;;;;;;;;;;;;;5079783;28;19913;-69
2023/10/18 13:05:00;;;;;;;81.10;76.57;;;;;;;;;;5108595;27;20509;-68
2023/10/18 13:07:43;;;;;;;;;;;;;;;;;;5090603;28;19916;-69
2023/10/18 13:10:11;;;;;;;;;;;;;;;;;;5089898;28;20242;-68
2023/10/18 13:12:38;;;;;;;;;;;;;;;;;;5089001;28;20006;-69
2023/10/18 13:15:04;;;;;;;;;;;;;;;;;;5089340;28;19915;-68
2023/10/18 13:17:32;;;;;;;;;;;;;;;;;;5087802;28;20375;-69
2023/10/18 13:19:58;;;;;;;;;;;;;;;;;;5089062;28;19918;-69
2023/10/18 13:22:25;;;;;;;;;;;;;;;;;;5088755;28;20446;-69
2023/10/18 13:24:51;;;;;;;;;;;;;;;;;;5088093;28;19916;-69
2023/10/18 13:27:28;;;;;;;;;;;;;;;;;;5088946;28;19916;-69
2023/10/18 13:30:00;;;;;;;;;;;;;;;;;;5088970;28;19909;-70
2023/10/18 13:32:28;;;;;;;;;;;;;;;;;;5088632;28;19951;-70
2023/10/18 13:34:54;;;;;;;;;;;;;;;;;;5088319;28;19953;-70
2023/10/18 13:37:23;;;;;;;;;;;;;;;;;;5088977;28;19912;-71
2023/10/18 13:39:51;;;;;;;;;;;;;;;;;;5088694;28;19908;-70
2023/10/18 13:42:18;;;;;;;;;;;;;;;;;;5086868;28;20053;-70
2023/10/18 13:44:44;;;;;;;;;;;;;;;;;;5087220;28;19953;-70
2023/10/18 13:47:11;;;;;;;;;;;;;;;;;;5088471;28;20327;-71
2023/10/18 13:49:37;;;;;;;;;;;;;;;;;;5088140;28;19919;-71
2023/10/18 13:52:04;;;;;;;;;;;;;;;;;;5089198;28;19909;-70
2023/10/18 13:54:30;;;;;;;;;;;;;;;;;;5089682;28;20406;-70
2023/10/18 13:56:56;;;;;;;;;;;;;;;;;;5089471;28;19908;-70
2023/10/18 13:59:22;;;;;;;;;;;;;;;;;;5089866;28;19912;-70
2023/10/18 14:01:49;;;;;;;;;;;;;;;;;;5089879;28;19981;-70
2023/10/18 14:04:19;;;;;;;;;;;;;;;;;;5089669;28;20378;-70
2023/10/18 14:06:45;;;;;;;;;;;;;;;;;;5103494;28;20270;-70
2023/10/18 14:09:11;;;;;;;;;;;;;;;;;;5110492;28;19915;-70
2023/10/18 14:11:39;;;;;;;;;;;;;;;;;;5091895;28;19912;-70
2023/10/18 14:14:07;;;;;;;;;;;;;;;;;;5110440;28;19991;-70
2023/10/18 14:16:34;;;;;;;;;;;;;;;;;;5110412;28;20356;-70
2023/10/18 14:19:00;;;;;;;;;;;;;;;;;;5096152;28;19908;-71
2023/10/18 14:21:29;;;;;;;;;;;;;;;;;;5096744;28;19908;-70
2023/10/18 14:23:59;;;;;;;;;;;;;;;;;;5096733;28;20004;-70
2023/10/18 14:26:25;;;;;;;;;;;;;;;;;;5096211;28;19962;-70
2023/10/18 14:28:51;;;;;;;;;;;;;;;;;;5096549;28;19909;-70
2023/10/18 14:31:17;;;;;;;;;;;;;;;;;;5078115;28;19999;-70
2023/10/18 14:33:43;;;;;;;;;;;;;;;;;;5096489;28;19931;-70
2023/10/18 14:36:09;;;;;;;;;;;;;;;;;;5096435;28;19909;-70
2023/10/18 14:38:35;;;;;;;;;;;;;;;;;;5096136;28;19915;-70
2023/10/18 14:41:01;;;;;;;;;;;;;;;;;;5096390;28;19940;-70
2023/10/18 14:43:27;;;;;;;;;;;;;;;;;;5096280;28;20281;-70
2023/10/18 14:45:55;;;;;;;;;;;;;;;;;;5096222;28;20257;-69
2023/10/18 14:48:21;;;;;;;;;;;;;;;;;;5096729;28;19919;-69
2023/10/18 14:50:51;;;;;;;;;;;;;;;;;;5096232;28;19916;-69
2023/10/18 14:53:17;;;;;;;;;;;;;;;;;;5095678;28;19912;-70
2023/10/18 14:55:43;;;;;;;;;;;;;;;;;;5096124;28;19915;-70
2023/10/18 14:58:09;;;;;;;;;;;;;;;;;;5096011;28;20358;-70
2023/10/18 15:00:35;;;;;;;;;;;;;;;;;;5095663;28;19962;-70
2023/10/18 15:03:01;;;;;;;;;;;;;;;;;;5095970;28;19961;-69
2023/10/18 15:05:27;;;;;;;;;;;;;;;;;;5095683;28;19912;-69
2023/10/18 15:07:53;;;;;;;;;;;;;;;;;;5095593;28;19914;-69
2023/10/18 15:10:19;;;;;;;;;;;;;;;;;;5095830;28;19915;-70
2023/10/18 15:12:45;;;;;;;;;;;;;;;;;;5095811;28;20364;-69
2023/10/18 15:15:14;;;;;;;;;;;;;;;;;;5077205;28;19908;-70
2023/10/18 15:17:40;;;;;;;;;;;;;;;;;;5095689;28;19908;-69
2023/10/18 15:20:08;;;;;;;;;;;;;;;;;;5095763;28;20322;-69
2023/10/18 15:22:34;;;;;;;;;;;;;;;;;;5095135;28;19950;-70
2023/10/18 15:25:00;;;;;;;;;;;;;;;;;;5095935;28;20367;-69
2023/10/18 15:27:26;;;;;;;;;;;;;;;;;;5095069;28;19916;-69
2023/10/18 15:29:52;;;;;;;;;;;;;;;;;;5094490;28;19908;-69
2023/10/18 15:32:18;;;;;;;;;;;;;;;;;;5095428;28;19908;-69
2023/10/18 15:34:47;;;;;;;;;;;;;;;;;;5095115;28;19961;-68
2023/10/18 15:37:13;;;;;;;;;;;;;;;;;;5095723;28;19908;-69
2023/10/18 15:39:42;;;;;;;;;;;;;;;;;;5095239;28;19962;-68
2023/10/18 15:42:11;;;;;;;;;;;;;;;;;;5094860;28;19908;-68
2023/10/18 15:44:40;;;;;;;;;;;;;;;;;;5076986;28;19908;-69
2023/10/18 15:47:08;;;;;;;;;;;;;;;;;;5095011;28;19917;-68
2023/10/18 15:49:34;;;;;;;;;;;;;;;;;;5094879;28;19908;-68
2023/10/18 15:52:01;;;;;;;;;;;;;;;;;;5094969;28;19909;-68
2023/10/18 15:54:26;;;;;;;;;;;;;;;;;;5095291;28;20257;-68
2023/10/18 15:56:53;;;;;;;;;;;;;;;;;;5094494;28;19953;-70
2023/10/18 15:59:59;;;;;;;;;;;;;;;;;;5091425;28;19916;-69
2023/10/18 16:02:26;;;;;;;;;;;;;;;;;;5091290;28;20003;-69
2023/10/18 16:04:53;;;;;;;;;;;;;;;;;;5090819;28;20432;-69
2023/10/18 16:07:19;;;;;;;;;;;;;;;;;;5091410;28;19944;-69
2023/10/18 16:09:45;;;;;;;;;;;;;;;;;;5090724;28;19915;-69
2023/10/18 16:12:12;;;;;;;;;;;;;;;;;;5091160;28;19991;-69
2023/10/18 16:14:39;;;;;;;;;;;;;;;;;;5091165;28;19962;-69
2023/10/18 16:17:07;;;;;;;;;;;;;;;;;;5090699;28;19944;-69
2023/10/18 16:19:35;;;;;;;;;;;;;;;;;;5090904;28;19971;-69
2023/10/18 16:22:01;;;;;;;;;;;;;;;;;;5090991;28;19916;-69
2023/10/18 16:24:27;;;;;;;;;;;;;;;;;;5090596;28;19909;-69
2023/10/18 16:26:53;;;;;;;;;;;;;;;;;;5090850;28;20034;-69
2023/10/18 16:29:19;;;;;;;;;;;;;;;;;;5090875;28;19973;-69
2023/10/18 16:31:49;;;;;;;;;;;;;;;;;;5090417;28;19962;-69
2023/10/18 16:34:16;;;;;;;;;;;;;;;;;;5091250;28;19916;-69
2023/10/18 16:36:42;;;;;;;;;;;;;;;;;;5090801;28;19909;-69
2023/10/18 16:39:08;;;;;;;;;;;;;;;;;;5090151;28;19917;-69
2023/10/18 16:41:34;;;;;;;;;;;;;;;;;;5090734;28;19912;-68
2023/10/18 16:43:59;;;;;;;;;;;;;;;;;;5090597;28;20291;-69
2023/10/18 16:46:26;;;;;;;;;;;;;;;;;;5089992;28;20285;-69
2023/10/18 16:48:52;;;;;;;;;;;;;;;;;;5090436;28;20356;-68
2023/10/18 16:51:18;;;;;;;;;;;;;;;;;;5090325;28;19909;-68
2023/10/18 16:53:46;;;;;;;;;;;;;;;;;;5089968;28;19908;-68
2023/10/18 16:56:14;;;;;;;;;;;;;;;;;;5090476;28;19912;-68
2023/10/18 16:58:40;;;;;;;;;;;;;;;;;;5099627;28;19924;-69
2023/10/18 17:01:09;;;;;;;;;;;;;;;;;;5110172;28;20376;-70
2023/10/18 17:03:35;;;;;;;;;;;;;;;;;;5111157;28;20261;-69
2023/10/18 17:06:04;;;;;;;;;;;;;;;;;;5110075;28;19973;-69
2023/10/18 17:08:30;;;;;;;;;;;;;;;;;;5110621;28;19908;-69
2023/10/18 17:10:56;;;;;;;;;;;;;;;;;;5098966;28;20249;-69
2023/10/18 17:13:26;;;;;;;;;;;;;;;;;;5077745;28;20268;-69
2023/10/18 17:15:52;;;;;;;;;;;;;;;;;;5096669;28;19980;-68
2023/10/18 17:18:18;;;;;;;;;;;;;;;;;;5078211;28;20400;-68
2023/10/18 17:20:44;;;;;;;;;;;;;;;;;;5078000;28;20284;-69
2023/10/18 17:23:11;;;;;;;;;;;;;;;;;;5096446;28;19908;-68
2023/10/18 17:25:37;;;;;;;;;;;;;;;;;;5096462;28;19908;-69
2023/10/18 17:28:03;;;;;;;;;;;;;;;;;;5095864;28;19908;-69
2023/10/18 17:30:29;;;;;;;;;;;;;;;;;;5096260;28;19946;-69
2023/10/18 17:32:55;;;;;;;;;;;;;;;;;;5096191;28;19970;-69
2023/10/18 17:35:21;;;;;;;;;;;;;;;;;;5096119;28;19912;-69
2023/10/18 17:37:47;;;;;;;;;;;;;;;;;;5096179;28;19912;-69
2023/10/18 17:40:13;;;;;;;;;;;;;;;;;;5096188;28;20291;-69
2023/10/18 17:42:40;;;;;;;;;;;;;;;;;;5077675;28;19916;-69
2023/10/18 17:45:06;;;;;;;;;;;;;;;;;;5096132;28;19930;-69
2023/10/18 17:47:32;;;;;;;;;;;;;;;;;;5096116;28;19908;-69